Overview Statistics Trail Chart Weather Telemetry Raw packets
 

This is the latest recevied weather packets stored in our database for station/object PU5FJO-13. If no packets are shown the sender has not sent any weather packets the latest 10 day(s).

<< 25 26 27 28 29 30 31 >>
Time Temp. Humidity Pressure Rain* Wind** Luminosity Snow
1777442167 17.22° C 79% 1015.9 hPa - - - -
1777441567 16.67° C 82% 1015.7 hPa - - - -
1777440967 16.67° C 82% 1016 hPa - - - -
1777440367 16.67° C 82% 1016.1 hPa - - - -
1777439767 16.11° C 83% 1016 hPa - - - -
1777439167 16.11° C 86% 1016.3 hPa - - - -
1777438567 16.67° C 84% 1016.2 hPa - - - -
1777437967 16.67° C 82% 1016.6 hPa - - - -
1777437367 16.11° C 85% 1016.9 hPa - - - -
1777436767 16.11° C 85% 1017 hPa - - - -
1777436167 16.67° C 83% 1016.8 hPa - - - -
1777435567 17.22° C 82% 1016.5 hPa - - - -
1777434967 17.22° C 82% 1016.1 hPa - - - -
1777434367 16.67° C 83% 1016 hPa - - - -
1777433771 16.67° C 81% 1017 hPa - - - -
1777433167 16.67° C 82% 1017.2 hPa - - - -
1777432567 15.56° C 86% 1017.9 hPa - - - -
1777431967 15.56° C 85% 1018.3 hPa - - - -
1777431367 15.56° C 84% 1018.3 hPa - - - -
1777430767 15.56° C 83% 1018.2 hPa - - - -
1777430167 17.22° C 76% 1017.9 hPa - - - -
1777429567 17.22° C 76% 1018.5 hPa - - - -
1777428967 17.22° C 76% 1018.9 hPa - - - -
1777428367 16.11° C 77% 1019.2 hPa - - - -
1777427767 17.22° C 73% 1019 hPa - - - -

* Rain since midnight (hover to see other rain measurements)
** Current wind speed in m/s (hover to see current wind gust speed)